sensor_id;sensor_type;location;lat;lon;timestamp;P1;durP1;ratioP1;P2;durP2;ratioP2
22849;SDS011;11591;44.792;10.358;2023-02-12T00:01:07;29.45;;;11.00;;
22849;SDS011;11591;44.792;10.358;2023-02-12T00:03:34;26.33;;;11.65;;
22849;SDS011;11591;44.792;10.358;2023-02-12T00:06:00;25.73;;;10.73;;
22849;SDS011;11591;44.792;10.358;2023-02-12T00:08:26;25.73;;;10.60;;
22849;SDS011;11591;44.792;10.358;2023-02-12T00:10:52;32.38;;;11.40;;
22849;SDS011;11591;44.792;10.358;2023-02-12T00:13:18;25.98;;;10.35;;
22849;SDS011;11591;44.792;10.358;2023-02-12T00:15:43;22.17;;;9.32;;
22849;SDS011;11591;44.792;10.358;2023-02-12T00:18:09;28.70;;;9.85;;
22849;SDS011;11591;44.792;10.358;2023-02-12T00:20:36;25.75;;;9.77;;
22849;SDS011;11591;44.792;10.358;2023-02-12T00:23:03;21.60;;;9.45;;
22849;SDS011;11591;44.792;10.358;2023-02-12T00:25:30;27.08;;;10.43;;
22849;SDS011;11591;44.792;10.358;2023-02-12T00:27:56;22.02;;;10.38;;
22849;SDS011;11591;44.792;10.358;2023-02-12T00:30:24;24.65;;;9.60;;
22849;SDS011;11591;44.792;10.358;2023-02-12T00:32:49;22.83;;;9.88;;
22849;SDS011;11591;44.792;10.358;2023-02-12T00:35:15;23.75;;;10.25;;
22849;SDS011;11591;44.792;10.358;2023-02-12T00:37:41;23.50;;;9.13;;
22849;SDS011;11591;44.792;10.358;2023-02-12T00:40:07;24.00;;;10.20;;
22849;SDS011;11591;44.792;10.358;2023-02-12T00:42:34;27.63;;;9.60;;
22849;SDS011;11591;44.792;10.358;2023-02-12T00:45:00;21.40;;;9.57;;
22849;SDS011;11591;44.792;10.358;2023-02-12T00:47:27;22.33;;;9.60;;
22849;SDS011;11591;44.792;10.358;2023-02-12T00:49:52;20.48;;;8.82;;
22849;SDS011;11591;44.792;10.358;2023-02-12T00:52:18;24.77;;;9.75;;
22849;SDS011;11591;44.792;10.358;2023-02-12T00:54:44;17.63;;;8.95;;
22849;SDS011;11591;44.792;10.358;2023-02-12T00:57:10;22.25;;;9.57;;
22849;SDS011;11591;44.792;10.358;2023-02-12T00:59:37;21.58;;;9.63;;
22849;SDS011;11591;44.792;10.358;2023-02-12T01:02:04;20.77;;;9.20;;
22849;SDS011;11591;44.792;10.358;2023-02-12T01:04:30;20.65;;;9.15;;
22849;SDS011;11591;44.792;10.358;2023-02-12T01:06:55;24.10;;;9.50;;
22849;SDS011;11591;44.792;10.358;2023-02-12T01:09:21;25.75;;;9.27;;
22849;SDS011;11591;44.792;10.358;2023-02-12T01:11:47;22.40;;;8.73;;
22849;SDS011;11591;44.792;10.358;2023-02-12T01:14:14;38.72;;;17.02;;
22849;SDS011;11591;44.792;10.358;2023-02-12T01:16:40;25.42;;;9.27;;
22849;SDS011;11591;44.792;10.358;2023-02-12T01:19:06;24.35;;;9.40;;
22849;SDS011;11591;44.792;10.358;2023-02-12T01:21:32;19.40;;;8.45;;
22849;SDS011;11591;44.792;10.358;2023-02-12T01:23:59;15.93;;;8.23;;
22849;SDS011;11591;44.792;10.358;2023-02-12T01:26:25;19.20;;;8.55;;
22849;SDS011;11591;44.792;10.358;2023-02-12T01:28:56;18.70;;;8.20;;
22849;SDS011;11591;44.792;10.358;2023-02-12T01:31:26;22.88;;;8.70;;
22849;SDS011;11591;44.792;10.358;2023-02-12T01:33:55;16.92;;;7.90;;
22849;SDS011;11591;44.792;10.358;2023-02-12T01:36:22;22.08;;;8.27;;
22849;SDS011;11591;44.792;10.358;2023-02-12T01:38:48;18.15;;;8.15;;
22849;SDS011;11591;44.792;10.358;2023-02-12T01:41:16;17.77;;;8.32;;
22849;SDS011;11591;44.792;10.358;2023-02-12T01:44:04;18.27;;;8.48;;
22849;SDS011;11591;44.792;10.358;2023-02-12T01:46:30;21.95;;;7.70;;
22849;SDS011;11591;44.792;10.358;2023-02-12T01:48:55;24.75;;;7.72;;
22849;SDS011;11591;44.792;10.358;2023-02-12T01:51:21;19.70;;;8.32;;
22849;SDS011;11591;44.792;10.358;2023-02-12T01:53:50;17.67;;;8.13;;
22849;SDS011;11591;44.792;10.358;2023-02-12T01:56:18;15.75;;;7.68;;
22849;SDS011;11591;44.792;10.358;2023-02-12T01:58:45;20.98;;;7.80;;
22849;SDS011;11591;44.792;10.358;2023-02-12T02:01:15;21.50;;;9.60;;
22849;SDS011;11591;44.792;10.358;2023-02-12T02:03:47;16.90;;;7.82;;
22849;SDS011;11591;44.792;10.358;2023-02-12T02:06:18;17.67;;;7.38;;
22849;SDS011;11591;44.792;10.358;2023-02-12T02:08:46;17.13;;;7.47;;
22849;SDS011;11591;44.792;10.358;2023-02-12T02:11:13;17.77;;;7.57;;
22849;SDS011;11591;44.792;10.358;2023-02-12T02:13:58;15.45;;;7.30;;
22849;SDS011;11591;44.792;10.358;2023-02-12T02:16:50;14.25;;;6.70;;
22849;SDS011;11591;44.792;10.358;2023-02-12T02:33:14;16.35;;;6.68;;
22849;SDS011;11591;44.792;10.358;2023-02-12T02:38:49;16.25;;;6.93;;
22849;SDS011;11591;44.792;10.358;2023-02-12T02:41:36;15.77;;;7.15;;
22849;SDS011;11591;44.792;10.358;2023-02-12T02:44:09;13.35;;;5.65;;
22849;SDS011;11591;44.792;10.358;2023-02-12T02:46:47;14.95;;;6.68;;
22849;SDS011;11591;44.792;10.358;2023-02-12T02:49:17;14.93;;;5.95;;
22849;SDS011;11591;44.792;10.358;2023-02-12T02:51:54;11.18;;;5.13;;
22849;SDS011;11591;44.792;10.358;2023-02-12T02:54:30;12.73;;;5.72;;
22849;SDS011;11591;44.792;10.358;2023-02-12T02:57:02;10.90;;;5.15;;
22849;SDS011;11591;44.792;10.358;2023-02-12T02:59:39;13.82;;;6.15;;
22849;SDS011;11591;44.792;10.358;2023-02-12T03:02:14;14.95;;;6.03;;
22849;SDS011;11591;44.792;10.358;2023-02-12T03:04:47;14.73;;;6.05;;
22849;SDS011;11591;44.792;10.358;2023-02-12T03:07:17;13.52;;;5.63;;
22849;SDS011;11591;44.792;10.358;2023-02-12T03:09:54;12.35;;;5.90;;
22849;SDS011;11591;44.792;10.358;2023-02-12T03:12:32;14.20;;;5.78;;
22849;SDS011;11591;44.792;10.358;2023-02-12T03:15:10;16.00;;;6.45;;
22849;SDS011;11591;44.792;10.358;2023-02-12T03:17:47;11.93;;;5.70;;
22849;SDS011;11591;44.792;10.358;2023-02-12T03:20:16;15.40;;;6.55;;
22849;SDS011;11591;44.792;10.358;2023-02-12T03:22:45;12.98;;;6.18;;
22849;SDS011;11591;44.792;10.358;2023-02-12T03:25:30;13.88;;;5.72;;
22849;SDS011;11591;44.792;10.358;2023-02-12T03:28:05;10.90;;;5.18;;
22849;SDS011;11591;44.792;10.358;2023-02-12T03:39:34;16.65;;;6.30;;
22849;SDS011;11591;44.792;10.358;2023-02-12T03:42:08;12.70;;;5.78;;
22849;SDS011;11591;44.792;10.358;2023-02-12T03:44:54;13.30;;;6.05;;
22849;SDS011;11591;44.792;10.358;2023-02-12T03:47:26;12.35;;;6.05;;
22849;SDS011;11591;44.792;10.358;2023-02-12T03:50:00;13.13;;;5.63;;
22849;SDS011;11591;44.792;10.358;2023-02-12T03:52:34;12.88;;;5.32;;
22849;SDS011;11591;44.792;10.358;2023-02-12T03:55:00;13.70;;;6.03;;
22849;SDS011;11591;44.792;10.358;2023-02-12T03:57:28;12.32;;;5.80;;
22849;SDS011;11591;44.792;10.358;2023-02-12T04:00:05;14.57;;;5.72;;
22849;SDS011;11591;44.792;10.358;2023-02-12T04:02:41;9.98;;;4.88;;
22849;SDS011;11591;44.792;10.358;2023-02-12T04:05:07;11.57;;;5.50;;
22849;SDS011;11591;44.792;10.358;2023-02-12T04:07:41;11.27;;;5.47;;
22849;SDS011;11591;44.792;10.358;2023-02-12T04:10:07;11.07;;;5.00;;
22849;SDS011;11591;44.792;10.358;2023-02-12T04:12:38;13.15;;;5.57;;
22849;SDS011;11591;44.792;10.358;2023-02-12T04:31:57;10.10;;;5.18;;
22849;SDS011;11591;44.792;10.358;2023-02-12T04:34:38;11.80;;;5.40;;
22849;SDS011;11591;44.792;10.358;2023-02-12T04:37:21;11.38;;;4.93;;
22849;SDS011;11591;44.792;10.358;2023-02-12T04:39:52;14.77;;;5.40;;
22849;SDS011;11591;44.792;10.358;2023-02-12T04:42:19;11.82;;;5.40;;
22849;SDS011;11591;44.792;10.358;2023-02-12T04:44:45;9.60;;;4.90;;
22849;SDS011;11591;44.792;10.358;2023-02-12T04:47:11;13.38;;;5.25;;
22849;SDS011;11591;44.792;10.358;2023-02-12T04:49:38;10.98;;;5.13;;
22849;SDS011;11591;44.792;10.358;2023-02-12T04:52:05;11.32;;;5.20;;
22849;SDS011;11591;44.792;10.358;2023-02-12T04:54:31;11.85;;;5.40;;
22849;SDS011;11591;44.792;10.358;2023-02-12T04:56:57;10.93;;;5.10;;
22849;SDS011;11591;44.792;10.358;2023-02-12T04:59:23;12.82;;;5.10;;
22849;SDS011;11591;44.792;10.358;2023-02-12T05:01:49;13.00;;;5.57;;
22849;SDS011;11591;44.792;10.358;2023-02-12T05:04:15;12.40;;;5.53;;
22849;SDS011;11591;44.792;10.358;2023-02-12T05:06:42;12.05;;;5.25;;
22849;SDS011;11591;44.792;10.358;2023-02-12T05:09:09;10.32;;;4.68;;
22849;SDS011;11591;44.792;10.358;2023-02-12T05:11:39;11.15;;;4.78;;
22849;SDS011;11591;44.792;10.358;2023-02-12T05:14:05;11.70;;;5.30;;
22849;SDS011;11591;44.792;10.358;2023-02-12T05:16:30;10.02;;;4.88;;
22849;SDS011;11591;44.792;10.358;2023-02-12T05:18:56;9.18;;;5.10;;
22849;SDS011;11591;44.792;10.358;2023-02-12T05:21:22;10.73;;;4.85;;
22849;SDS011;11591;44.792;10.358;2023-02-12T05:23:48;14.40;;;5.40;;
22849;SDS011;11591;44.792;10.358;2023-02-12T05:26:18;10.23;;;4.63;;
22849;SDS011;11591;44.792;10.358;2023-02-12T05:28:46;9.50;;;4.40;;
22849;SDS011;11591;44.792;10.358;2023-02-12T05:31:13;10.98;;;5.05;;
22849;SDS011;11591;44.792;10.358;2023-02-12T05:33:44;9.68;;;4.45;;
22849;SDS011;11591;44.792;10.358;2023-02-12T05:36:12;11.07;;;4.85;;
22849;SDS011;11591;44.792;10.358;2023-02-12T05:38:40;10.05;;;4.30;;
22849;SDS011;11591;44.792;10.358;2023-02-12T05:41:07;12.32;;;5.00;;
22849;SDS011;11591;44.792;10.358;2023-02-12T05:43:35;11.40;;;5.30;;
22849;SDS011;11591;44.792;10.358;2023-02-12T05:46:02;11.35;;;4.97;;
22849;SDS011;11591;44.792;10.358;2023-02-12T05:48:30;13.57;;;5.30;;
22849;SDS011;11591;44.792;10.358;2023-02-12T05:51:00;13.07;;;4.68;;
22849;SDS011;11591;44.792;10.358;2023-02-12T05:53:31;10.88;;;4.85;;
22849;SDS011;11591;44.792;10.358;2023-02-12T05:58:34;11.07;;;4.68;;
22849;SDS011;11591;44.792;10.358;2023-02-12T06:01:00;10.05;;;4.70;;
22849;SDS011;11591;44.792;10.358;2023-02-12T06:03:27;10.27;;;4.88;;
22849;SDS011;11591;44.792;10.358;2023-02-12T06:05:52;11.70;;;5.20;;
22849;SDS011;11591;44.792;10.358;2023-02-12T06:08:18;10.25;;;5.03;;
22849;SDS011;11591;44.792;10.358;2023-02-12T06:10:44;9.45;;;5.03;;
22849;SDS011;11591;44.792;10.358;2023-02-12T06:13:10;11.25;;;5.50;;
22849;SDS011;11591;44.792;10.358;2023-02-12T06:15:36;12.23;;;5.28;;
22849;SDS011;11591;44.792;10.358;2023-02-12T06:18:01;13.35;;;5.30;;
22849;SDS011;11591;44.792;10.358;2023-02-12T06:20:27;10.10;;;4.72;;
22849;SDS011;11591;44.792;10.358;2023-02-12T06:22:53;13.60;;;5.75;;
22849;SDS011;11591;44.792;10.358;2023-02-12T06:25:19;10.82;;;5.03;;
22849;SDS011;11591;44.792;10.358;2023-02-12T06:27:45;12.55;;;5.00;;
22849;SDS011;11591;44.792;10.358;2023-02-12T06:30:11;12.23;;;5.30;;
22849;SDS011;11591;44.792;10.358;2023-02-12T06:32:37;11.07;;;5.32;;
22849;SDS011;11591;44.792;10.358;2023-02-12T06:35:03;10.82;;;5.25;;
22849;SDS011;11591;44.792;10.358;2023-02-12T06:37:29;13.50;;;5.53;;
22849;SDS011;11591;44.792;10.358;2023-02-12T06:39:56;10.50;;;5.47;;
22849;SDS011;11591;44.792;10.358;2023-02-12T06:42:22;11.60;;;5.50;;
22849;SDS011;11591;44.792;10.358;2023-02-12T06:44:48;13.43;;;5.50;;
22849;SDS011;11591;44.792;10.358;2023-02-12T06:47:14;19.90;;;5.85;;
22849;SDS011;11591;44.792;10.358;2023-02-12T06:49:39;11.38;;;4.80;;
22849;SDS011;11591;44.792;10.358;2023-02-12T06:52:05;11.75;;;5.40;;
22849;SDS011;11591;44.792;10.358;2023-02-12T06:54:31;12.68;;;4.88;;
22849;SDS011;11591;44.792;10.358;2023-02-12T06:56:57;11.82;;;5.43;;
22849;SDS011;11591;44.792;10.358;2023-02-12T06:59:23;13.40;;;5.13;;
22849;SDS011;11591;44.792;10.358;2023-02-12T07:01:48;16.33;;;6.00;;
22849;SDS011;11591;44.792;10.358;2023-02-12T07:04:14;14.90;;;5.57;;
22849;SDS011;11591;44.792;10.358;2023-02-12T07:06:40;13.40;;;5.30;;
22849;SDS011;11591;44.792;10.358;2023-02-12T07:09:06;15.23;;;5.18;;
22849;SDS011;11591;44.792;10.358;2023-02-12T07:11:32;11.80;;;5.20;;
22849;SDS011;11591;44.792;10.358;2023-02-12T07:13:59;10.50;;;5.28;;
22849;SDS011;11591;44.792;10.358;2023-02-12T07:16:25;8.55;;;4.70;;
22849;SDS011;11591;44.792;10.358;2023-02-12T07:18:52;12.55;;;5.43;;
22849;SDS011;11591;44.792;10.358;2023-02-12T07:21:18;12.13;;;5.35;;
22849;SDS011;11591;44.792;10.358;2023-02-12T07:23:45;15.13;;;5.95;;
22849;SDS011;11591;44.792;10.358;2023-02-12T07:26:12;11.85;;;5.68;;
22849;SDS011;11591;44.792;10.358;2023-02-12T07:28:38;18.17;;;5.68;;
22849;SDS011;11591;44.792;10.358;2023-02-12T07:31:06;13.35;;;5.63;;
22849;SDS011;11591;44.792;10.358;2023-02-12T07:33:37;13.95;;;5.60;;
22849;SDS011;11591;44.792;10.358;2023-02-12T07:36:05;15.75;;;6.18;;
22849;SDS011;11591;44.792;10.358;2023-02-12T07:38:32;14.70;;;6.70;;
22849;SDS011;11591;44.792;10.358;2023-02-12T07:41:20;12.93;;;6.07;;
22849;SDS011;11591;44.792;10.358;2023-02-12T07:43:48;15.40;;;6.13;;
22849;SDS011;11591;44.792;10.358;2023-02-12T07:46:20;16.10;;;7.13;;
22849;SDS011;11591;44.792;10.358;2023-02-12T07:48:50;17.13;;;6.85;;
22849;SDS011;11591;44.792;10.358;2023-02-12T07:51:17;16.30;;;7.32;;
22849;SDS011;11591;44.792;10.358;2023-02-12T07:53:43;16.48;;;6.93;;
22849;SDS011;11591;44.792;10.358;2023-02-12T07:56:10;23.23;;;8.60;;
22849;SDS011;11591;44.792;10.358;2023-02-12T07:58:45;15.77;;;6.82;;
22849;SDS011;11591;44.792;10.358;2023-02-12T08:01:17;16.85;;;7.20;;
22849;SDS011;11591;44.792;10.358;2023-02-12T08:03:48;19.90;;;7.70;;
22849;SDS011;11591;44.792;10.358;2023-02-12T08:06:18;21.77;;;8.88;;
22849;SDS011;11591;44.792;10.358;2023-02-12T08:08:47;17.15;;;7.68;;
22849;SDS011;11591;44.792;10.358;2023-02-12T08:11:17;16.10;;;7.72;;
22849;SDS011;11591;44.792;10.358;2023-02-12T08:13:43;22.35;;;7.05;;
22849;SDS011;11591;44.792;10.358;2023-02-12T08:16:19;12.60;;;5.90;;
22849;SDS011;11591;44.792;10.358;2023-02-12T08:18:47;13.18;;;5.47;;
22849;SDS011;11591;44.792;10.358;2023-02-12T08:21:19;11.85;;;5.15;;
22849;SDS011;11591;44.792;10.358;2023-02-12T08:23:47;14.18;;;5.72;;
22849;SDS011;11591;44.792;10.358;2023-02-12T08:26:16;12.77;;;5.45;;
22849;SDS011;11591;44.792;10.358;2023-02-12T08:28:44;9.00;;;4.50;;
22849;SDS011;11591;44.792;10.358;2023-02-12T08:31:13;13.80;;;4.63;;
22849;SDS011;11591;44.792;10.358;2023-02-12T08:33:42;9.18;;;4.50;;
22849;SDS011;11591;44.792;10.358;2023-02-12T08:36:10;9.77;;;4.63;;
22849;SDS011;11591;44.792;10.358;2023-02-12T08:38:37;11.25;;;5.15;;
22849;SDS011;11591;44.792;10.358;2023-02-12T08:41:07;11.50;;;5.88;;
22849;SDS011;11591;44.792;10.358;2023-02-12T08:43:35;13.85;;;5.88;;
22849;SDS011;11591;44.792;10.358;2023-02-12T08:46:06;14.70;;;6.20;;
22849;SDS011;11591;44.792;10.358;2023-02-12T08:48:33;13.77;;;6.03;;
22849;SDS011;11591;44.792;10.358;2023-02-12T08:51:07;16.40;;;6.60;;
22849;SDS011;11591;44.792;10.358;2023-02-12T08:53:39;18.65;;;7.57;;
22849;SDS011;11591;44.792;10.358;2023-02-12T08:56:07;15.15;;;7.25;;
22849;SDS011;11591;44.792;10.358;2023-02-12T08:58:34;18.85;;;7.95;;
22849;SDS011;11591;44.792;10.358;2023-02-12T09:01:00;16.02;;;7.22;;
22849;SDS011;11591;44.792;10.358;2023-02-12T09:03:26;17.42;;;7.63;;
22849;SDS011;11591;44.792;10.358;2023-02-12T09:05:52;22.52;;;8.73;;
22849;SDS011;11591;44.792;10.358;2023-02-12T09:08:18;22.70;;;8.23;;
22849;SDS011;11591;44.792;10.358;2023-02-12T09:10:45;19.05;;;8.82;;
22849;SDS011;11591;44.792;10.358;2023-02-12T09:13:11;21.98;;;8.80;;
22849;SDS011;11591;44.792;10.358;2023-02-12T09:15:42;24.10;;;9.32;;
22849;SDS011;11591;44.792;10.358;2023-02-12T09:18:10;19.48;;;9.00;;
22849;SDS011;11591;44.792;10.358;2023-02-12T09:20:38;19.85;;;8.27;;
22849;SDS011;11591;44.792;10.358;2023-02-12T09:23:07;21.83;;;10.07;;
22849;SDS011;11591;44.792;10.358;2023-02-12T09:25:38;18.35;;;9.00;;
22849;SDS011;11591;44.792;10.358;2023-02-12T09:28:05;23.17;;;9.70;;
22849;SDS011;11591;44.792;10.358;2023-02-12T09:30:30;25.25;;;9.30;;
22849;SDS011;11591;44.792;10.358;2023-02-12T09:32:56;19.38;;;9.35;;
22849;SDS011;11591;44.792;10.358;2023-02-12T09:35:22;21.75;;;10.05;;
22849;SDS011;11591;44.792;10.358;2023-02-12T09:37:48;20.92;;;9.65;;
22849;SDS011;11591;44.792;10.358;2023-02-12T09:46:03;24.08;;;10.13;;
22849;SDS011;11591;44.792;10.358;2023-02-12T09:51:20;22.63;;;10.35;;
22849;SDS011;11591;44.792;10.358;2023-02-12T09:53:47;23.45;;;10.25;;
22849;SDS011;11591;44.792;10.358;2023-02-12T09:56:19;24.75;;;10.30;;
22849;SDS011;11591;44.792;10.358;2023-02-12T09:58:50;28.10;;;10.63;;
22849;SDS011;11591;44.792;10.358;2023-02-12T10:01:17;22.40;;;10.45;;
22849;SDS011;11591;44.792;10.358;2023-02-12T10:03:45;24.80;;;9.50;;
22849;SDS011;11591;44.792;10.358;2023-02-12T10:06:14;21.23;;;9.98;;
22849;SDS011;11591;44.792;10.358;2023-02-12T10:09:01;24.33;;;10.60;;
22849;SDS011;11591;44.792;10.358;2023-02-12T10:19:45;25.17;;;11.10;;
22849;SDS011;11591;44.792;10.358;2023-02-12T10:28:18;21.35;;;10.27;;
22849;SDS011;11591;44.792;10.358;2023-02-12T10:31:52;23.92;;;10.57;;
22849;SDS011;11591;44.792;10.358;2023-02-12T10:33:51;22.58;;;10.07;;
22849;SDS011;11591;44.792;10.358;2023-02-12T10:39:11;22.92;;;11.05;;
22849;SDS011;11591;44.792;10.358;2023-02-12T10:41:47;29.35;;;11.27;;
22849;SDS011;11591;44.792;10.358;2023-02-12T10:44:20;27.27;;;10.48;;
22849;SDS011;11591;44.792;10.358;2023-02-12T10:46:46;24.10;;;11.05;;
22849;SDS011;11591;44.792;10.358;2023-02-12T10:49:12;26.50;;;10.90;;
22849;SDS011;11591;44.792;10.358;2023-02-12T10:57:09;25.98;;;11.88;;
22849;SDS011;11591;44.792;10.358;2023-02-12T10:59:36;23.33;;;11.00;;
22849;SDS011;11591;44.792;10.358;2023-02-12T11:02:04;24.15;;;11.38;;
22849;SDS011;11591;44.792;10.358;2023-02-12T11:04:44;27.67;;;11.10;;
22849;SDS011;11591;44.792;10.358;2023-02-12T11:07:09;25.77;;;10.52;;
22849;SDS011;11591;44.792;10.358;2023-02-12T11:09:36;27.92;;;11.88;;
22849;SDS011;11591;44.792;10.358;2023-02-12T11:12:17;28.05;;;11.32;;
22849;SDS011;11591;44.792;10.358;2023-02-12T11:14:54;24.13;;;11.23;;
22849;SDS011;11591;44.792;10.358;2023-02-12T11:17:41;22.92;;;11.52;;
22849;SDS011;11591;44.792;10.358;2023-02-12T11:22:52;23.95;;;11.63;;
22849;SDS011;11591;44.792;10.358;2023-02-12T11:25:18;22.25;;;10.93;;
22849;SDS011;11591;44.792;10.358;2023-02-12T11:27:55;24.48;;;11.85;;
22849;SDS011;11591;44.792;10.358;2023-02-12T11:30:26;26.88;;;11.48;;
22849;SDS011;11591;44.792;10.358;2023-02-12T11:32:52;28.15;;;13.07;;
22849;SDS011;11591;44.792;10.358;2023-02-12T11:35:22;31.58;;;13.00;;
22849;SDS011;11591;44.792;10.358;2023-02-12T11:37:54;31.20;;;12.30;;
22849;SDS011;11591;44.792;10.358;2023-02-12T11:42:57;28.52;;;12.82;;
22849;SDS011;11591;44.792;10.358;2023-02-12T11:45:42;27.17;;;12.10;;
22849;SDS011;11591;44.792;10.358;2023-02-12T11:48:22;29.35;;;13.57;;
22849;SDS011;11591;44.792;10.358;2023-02-12T11:50:52;27.08;;;13.35;;
22849;SDS011;11591;44.792;10.358;2023-02-12T11:53:24;31.88;;;14.88;;
22849;SDS011;11591;44.792;10.358;2023-02-12T11:56:07;42.88;;;14.00;;
22849;SDS011;11591;44.792;10.358;2023-02-12T11:58:36;32.13;;;14.95;;
22849;SDS011;11591;44.792;10.358;2023-02-12T12:08:59;29.77;;;14.10;;
22849;SDS011;11591;44.792;10.358;2023-02-12T12:11:52;35.05;;;13.35;;
22849;SDS011;11591;44.792;10.358;2023-02-12T12:14:28;32.47;;;14.75;;
22849;SDS011;11591;44.792;10.358;2023-02-12T12:17:19;39.00;;;17.70;;
22849;SDS011;11591;44.792;10.358;2023-02-12T12:20:13;38.33;;;17.25;;
22849;SDS011;11591;44.792;10.358;2023-02-12T12:22:52;31.38;;;15.27;;
22849;SDS011;11591;44.792;10.358;2023-02-12T12:25:27;34.25;;;15.55;;
22849;SDS011;11591;44.792;10.358;2023-02-12T12:31:30;30.02;;;14.77;;
22849;SDS011;11591;44.792;10.358;2023-02-12T12:33:51;35.58;;;15.82;;
22849;SDS011;11591;44.792;10.358;2023-02-12T12:44:35;35.05;;;17.08;;
22849;SDS011;11591;44.792;10.358;2023-02-12T12:47:13;41.28;;;17.80;;
22849;SDS011;11591;44.792;10.358;2023-02-12T12:55:40;40.00;;;18.35;;
22849;SDS011;11591;44.792;10.358;2023-02-12T13:07:15;43.70;;;20.33;;
22849;SDS011;11591;44.792;10.358;2023-02-12T13:18:23;49.33;;;23.55;;
22849;SDS011;11591;44.792;10.358;2023-02-12T13:23:57;51.67;;;24.23;;
22849;SDS011;11591;44.792;10.358;2023-02-12T13:26:30;53.90;;;24.42;;
22849;SDS011;11591;44.792;10.358;2023-02-12T13:29:08;51.38;;;24.42;;
22849;SDS011;11591;44.792;10.358;2023-02-12T13:31:50;50.90;;;24.70;;
22849;SDS011;11591;44.792;10.358;2023-02-12T13:34:25;50.65;;;24.38;;
22849;SDS011;11591;44.792;10.358;2023-02-12T13:36:54;51.30;;;23.35;;
22849;SDS011;11591;44.792;10.358;2023-02-12T13:47:28;62.92;;;28.90;;
22849;SDS011;11591;44.792;10.358;2023-02-12T13:53:14;63.35;;;29.02;;
22849;SDS011;11591;44.792;10.358;2023-02-12T13:55:58;54.53;;;28.60;;
22849;SDS011;11591;44.792;10.358;2023-02-12T14:03:28;60.47;;;30.58;;
22849;SDS011;11591;44.792;10.358;2023-02-12T14:06:08;52.60;;;29.25;;
22849;SDS011;11591;44.792;10.358;2023-02-12T14:08:39;56.03;;;31.38;;
22849;SDS011;11591;44.792;10.358;2023-02-12T14:11:12;54.40;;;30.90;;
22849;SDS011;11591;44.792;10.358;2023-02-12T14:22:12;54.20;;;30.38;;
22849;SDS011;11591;44.792;10.358;2023-02-12T14:24:51;52.13;;;30.52;;
22849;SDS011;11591;44.792;10.358;2023-02-12T14:40:43;52.88;;;30.50;;
22849;SDS011;11591;44.792;10.358;2023-02-12T14:43:49;53.75;;;29.80;;
22849;SDS011;11591;44.792;10.358;2023-02-12T14:48:56;53.72;;;30.08;;
22849;SDS011;11591;44.792;10.358;2023-02-12T14:51:34;54.45;;;32.10;;
22849;SDS011;11591;44.792;10.358;2023-02-12T14:54:14;54.13;;;31.63;;
22849;SDS011;11591;44.792;10.358;2023-02-12T14:56:57;64.05;;;34.05;;
22849;SDS011;11591;44.792;10.358;2023-02-12T14:59:25;60.38;;;33.80;;
22849;SDS011;11591;44.792;10.358;2023-02-12T15:01:57;59.38;;;33.13;;
22849;SDS011;11591;44.792;10.358;2023-02-12T15:04:25;56.47;;;32.50;;
22849;SDS011;11591;44.792;10.358;2023-02-12T15:06:56;64.57;;;36.28;;
22849;SDS011;11591;44.792;10.358;2023-02-12T15:09:34;64.07;;;37.33;;
22849;SDS011;11591;44.792;10.358;2023-02-12T15:12:19;60.83;;;35.50;;
22849;SDS011;11591;44.792;10.358;2023-02-12T15:14:58;62.67;;;38.28;;
22849;SDS011;11591;44.792;10.358;2023-02-12T15:17:27;55.47;;;31.73;;
22849;SDS011;11591;44.792;10.358;2023-02-12T15:19:58;53.55;;;30.23;;
22849;SDS011;11591;44.792;10.358;2023-02-12T15:22:31;57.88;;;32.25;;
22849;SDS011;11591;44.792;10.358;2023-02-12T15:27:45;53.22;;;30.75;;
22849;SDS011;11591;44.792;10.358;2023-02-12T15:30:16;54.58;;;30.95;;
22849;SDS011;11591;44.792;10.358;2023-02-12T15:32:44;58.15;;;30.23;;
22849;SDS011;11591;44.792;10.358;2023-02-12T15:35:53;54.47;;;30.17;;
22849;SDS011;11591;44.792;10.358;2023-02-12T15:38:01;57.38;;;30.67;;
22849;SDS011;11591;44.792;10.358;2023-02-12T15:40:31;57.58;;;31.48;;
22849;SDS011;11591;44.792;10.358;2023-02-12T15:43:01;60.95;;;31.30;;
22849;SDS011;11591;44.792;10.358;2023-02-12T15:45:30;56.58;;;30.83;;
22849;SDS011;11591;44.792;10.358;2023-02-12T15:50:26;63.45;;;32.25;;
22849;SDS011;11591;44.792;10.358;2023-02-12T15:52:53;62.13;;;33.88;;
22849;SDS011;11591;44.792;10.358;2023-02-12T15:55:25;57.78;;;31.42;;
22849;SDS011;11591;44.792;10.358;2023-02-12T15:57:53;58.80;;;32.42;;
22849;SDS011;11591;44.792;10.358;2023-02-12T16:00:34;61.83;;;35.00;;
22849;SDS011;11591;44.792;10.358;2023-02-12T16:03:16;66.35;;;37.10;;
22849;SDS011;11591;44.792;10.358;2023-02-12T16:05:56;70.72;;;39.10;;
22849;SDS011;11591;44.792;10.358;2023-02-12T16:08:38;76.82;;;40.47;;
22849;SDS011;11591;44.792;10.358;2023-02-12T16:11:06;78.45;;;41.90;;
22849;SDS011;11591;44.792;10.358;2023-02-12T16:13:44;81.00;;;43.33;;
22849;SDS011;11591;44.792;10.358;2023-02-12T16:18:43;84.30;;;45.50;;
22849;SDS011;11591;44.792;10.358;2023-02-12T16:23:36;85.72;;;43.95;;
22849;SDS011;11591;44.792;10.358;2023-02-12T16:26:02;82.05;;;43.67;;
22849;SDS011;11591;44.792;10.358;2023-02-12T16:28:29;83.95;;;44.70;;
22849;SDS011;11591;44.792;10.358;2023-02-12T16:31:06;82.90;;;43.70;;
22849;SDS011;11591;44.792;10.358;2023-02-12T16:43:45;85.28;;;41.45;;
22849;SDS011;11591;44.792;10.358;2023-02-12T16:46:13;88.28;;;41.55;;
22849;SDS011;11591;44.792;10.358;2023-02-12T16:48:41;84.38;;;42.25;;
22849;SDS011;11591;44.792;10.358;2023-02-12T16:51:26;81.20;;;40.75;;
22849;SDS011;11591;44.792;10.358;2023-02-12T16:53:57;83.40;;;42.10;;
22849;SDS011;11591;44.792;10.358;2023-02-12T16:56:26;90.03;;;41.92;;
22849;SDS011;11591;44.792;10.358;2023-02-12T16:58:56;81.78;;;41.17;;
22849;SDS011;11591;44.792;10.358;2023-02-12T17:01:27;81.32;;;40.08;;
22849;SDS011;11591;44.792;10.358;2023-02-12T17:03:59;84.57;;;41.30;;
22849;SDS011;11591;44.792;10.358;2023-02-12T17:06:29;81.82;;;39.53;;
22849;SDS011;11591;44.792;10.358;2023-02-12T17:08:56;83.47;;;39.33;;
22849;SDS011;11591;44.792;10.358;2023-02-12T17:11:22;82.03;;;39.03;;
22849;SDS011;11591;44.792;10.358;2023-02-12T17:13:50;81.30;;;39.67;;
22849;SDS011;11591;44.792;10.358;2023-02-12T17:16:18;88.32;;;40.80;;
22849;SDS011;11591;44.792;10.358;2023-02-12T17:18:44;80.88;;;38.22;;
22849;SDS011;11591;44.792;10.358;2023-02-12T17:21:17;84.85;;;39.03;;
22849;SDS011;11591;44.792;10.358;2023-02-12T17:23:47;87.57;;;39.47;;
22849;SDS011;11591;44.792;10.358;2023-02-12T17:26:13;82.38;;;40.33;;
22849;SDS011;11591;44.792;10.358;2023-02-12T17:28:39;88.43;;;40.45;;
22849;SDS011;11591;44.792;10.358;2023-02-12T17:31:06;84.57;;;39.30;;
22849;SDS011;11591;44.792;10.358;2023-02-12T17:33:35;79.85;;;38.05;;
22849;SDS011;11591;44.792;10.358;2023-02-12T17:36:01;84.60;;;39.03;;
22849;SDS011;11591;44.792;10.358;2023-02-12T17:38:28;87.10;;;40.50;;
22849;SDS011;11591;44.792;10.358;2023-02-12T17:40:54;88.05;;;40.55;;
22849;SDS011;11591;44.792;10.358;2023-02-12T17:43:20;87.95;;;40.55;;